Time;durP1;ratioP1;P1;durP2;ratioP2;P2;SDS_P1;SDS_P2;PMS_P1;PMS_P2;Temp;Humidity;BMP_temperature;BMP_pressure;BME280_temperature;BME280_humidity;BME280_pressure;Samples;Min_cycle;Max_cycle;Signal;HPM_P1;HPM_P2
2022/05/06 00:01:35;;;;;;;8.93;7.18;;;;;;;;;;5117440;28;20042;-82
2022/05/06 00:04:02;;;;;;;10.13;7.20;;;;;;;;;;5122338;27;20027;-82
2022/05/06 00:06:29;;;;;;;9.50;6.72;;;;;;;;;;5117980;28;20055;-82
2022/05/06 00:08:55;;;;;;;10.13;6.47;;;;;;;;;;5118137;28;20394;-82
2022/05/06 00:11:21;;;;;;;9.40;7.13;;;;;;;;;;5117482;28;20056;-82
2022/05/06 00:13:47;;;;;;;8.75;6.22;;;;;;;;;;5134478;27;20050;-82
2022/05/06 00:16:13;;;;;;;9.95;7.13;;;;;;;;;;5137791;27;20034;-82
2022/05/06 00:18:39;;;;;;;8.85;7.00;;;;;;;;;;5138340;27;20043;-82
2022/05/06 00:21:05;;;;;;;9.38;7.00;;;;;;;;;;5130889;27;20030;-82
2022/05/06 00:23:31;;;;;;;10.52;6.60;;;;;;;;;;5116284;28;20027;-82
2022/05/06 00:25:57;;;;;;;9.77;6.80;;;;;;;;;;5117554;28;20440;-82
2022/05/06 00:28:23;;;;;;;10.40;6.72;;;;;;;;;;5118344;28;20102;-82
2022/05/06 00:30:49;;;;;;;8.98;6.60;;;;;;;;;;5122286;27;20047;-82
2022/05/06 00:33:15;;;;;;;10.32;7.03;;;;;;;;;;5138641;27;20027;-82
2022/05/06 00:35:41;;;;;;;8.93;6.20;;;;;;;;;;5138126;27;20030;-82
2022/05/06 00:38:08;;;;;;;9.45;6.68;;;;;;;;;;5138224;27;20483;-82
2022/05/06 00:40:34;;;;;;;9.35;6.72;;;;;;;;;;5134190;27;20058;-82
2022/05/06 00:43:00;;;;;;;9.02;6.90;;;;;;;;;;5117952;28;20035;-82
2022/05/06 00:45:30;;;;;;;9.15;7.25;;;;;;;;;;5117419;28;20048;-82
2022/05/06 00:47:56;;;;;;;9.90;7.20;;;;;;;;;;5117752;28;20461;-82
2022/05/06 00:50:22;;;;;;;10.38;7.50;;;;;;;;;;5116531;28;20028;-82
2022/05/06 00:52:48;;;;;;;7.90;6.40;;;;;;;;;;5137508;27;20045;-82
2022/05/06 00:55:15;;;;;;;8.77;6.80;;;;;;;;;;5138295;27;20027;-82
2022/05/06 00:57:41;;;;;;;11.30;7.03;;;;;;;;;;5137353;27;20431;-82
2022/05/06 01:00:20;;;;;;;8.25;6.50;;;;;;;;;;5138008;27;20031;-82
2022/05/06 01:02:46;;;;;;;9.13;6.60;;;;;;;;;;5121424;27;20075;-82
2022/05/06 01:05:15;;;;;;;9.55;7.05;;;;;;;;;;5138165;27;20038;-82
2022/05/06 01:07:43;;;;;;;9.20;7.20;;;;;;;;;;5137371;27;20493;-82
2022/05/06 01:10:10;;;;;;;9.80;7.18;;;;;;;;;;5137780;28;20372;-82
2022/05/06 01:12:37;;;;;;;9.15;7.00;;;;;;;;;;5118338;28;20042;-82
2022/05/06 01:15:16;;;;;;;10.60;7.22;;;;;;;;;;5117682;28;20024;-81
2022/05/06 01:17:42;;;;;;;11.43;7.85;;;;;;;;;;5117261;28;20034;-82
2022/05/06 01:20:09;;;;;;;10.68;7.38;;;;;;;;;;5115747;28;20047;-82
2022/05/06 01:22:35;;;;;;;9.77;7.47;;;;;;;;;;5134816;28;20027;-82
2022/05/06 01:25:01;;;;;;;10.93;7.85;;;;;;;;;;5137261;28;20020;-82
2022/05/06 01:27:33;;;;;;;10.32;7.40;;;;;;;;;;5137875;28;20030;-82
2022/05/06 01:30:00;;;;;;;11.20;7.75;;;;;;;;;;5127760;28;20028;-82
2022/05/06 01:32:27;;;;;;;12.40;7.85;;;;;;;;;;5117449;28;20049;-81
2022/05/06 01:34:55;;;;;;;10.63;7.63;;;;;;;;;;5117206;28;20028;-82
2022/05/06 01:37:22;;;;;;;10.13;7.60;;;;;;;;;;5117520;28;20020;-82
2022/05/06 01:39:52;;;;;;;10.82;8.45;;;;;;;;;;5124318;28;20024;-82
2022/05/06 01:42:21;;;;;;;12.15;9.25;;;;;;;;;;5137510;28;20019;-82
2022/05/06 01:44:48;;;;;;;13.55;7.90;;;;;;;;;;5135334;28;20023;-82
2022/05/06 01:47:23;;;;;;;11.70;8.68;;;;;;;;;;5135811;28;20061;-82
2022/05/06 01:49:50;;;;;;;13.45;8.77;;;;;;;;;;5136624;28;20023;-82
2022/05/06 01:52:17;;;;;;;11.30;8.88;;;;;;;;;;5136590;28;20031;-82
2022/05/06 01:54:43;;;;;;;10.93;8.50;;;;;;;;;;5136848;28;20020;-82
2022/05/06 01:57:09;;;;;;;12.82;9.55;;;;;;;;;;5137613;28;20019;-82
2022/05/06 01:59:35;;;;;;;11.00;8.90;;;;;;;;;;5129743;28;20016;-82
2022/05/06 02:02:01;;;;;;;12.63;8.60;;;;;;;;;;5116673;28;20518;-82
2022/05/06 02:07:12;;;;;;;12.68;9.35;;;;;;;;;;5116784;28;20119;-81
2022/05/06 02:09:38;;;;;;;12.85;9.98;;;;;;;;;;5120651;28;20054;-82
2022/05/06 02:12:04;;;;;;;12.38;9.18;;;;;;;;;;5136798;28;20489;-82
2022/05/06 02:14:30;;;;;;;11.57;9.13;;;;;;;;;;5137024;27;20055;-82
2022/05/06 02:16:56;;;;;;;13.13;9.52;;;;;;;;;;5140472;27;20050;-82
2022/05/06 02:19:22;;;;;;;12.73;10.05;;;;;;;;;;5135324;27;20451;-82
2022/05/06 02:21:48;;;;;;;12.80;9.55;;;;;;;;;;5118947;28;20444;-82
2022/05/06 02:24:14;;;;;;;11.45;9.48;;;;;;;;;;5120278;28;20024;-82
2022/05/06 02:26:40;;;;;;;14.55;9.30;;;;;;;;;;5119758;28;20030;-82
2022/05/06 02:29:06;;;;;;;12.23;9.10;;;;;;;;;;5119118;27;20027;-82
2022/05/06 02:34:18;;;;;;;11.95;9.02;;;;;;;;;;5140475;27;20112;-82
2022/05/06 02:36:44;;;;;;;12.65;8.77;;;;;;;;;;5140991;27;21216;-82
2022/05/06 02:39:10;;;;;;;12.57;9.10;;;;;;;;;;5124889;27;20023;-82
2022/05/06 02:41:36;;;;;;;13.32;9.90;;;;;;;;;;5119837;28;20045;-82
2022/05/06 02:44:04;;;;;;;11.98;8.93;;;;;;;;;;5119661;28;20063;-82
2022/05/06 02:46:30;;;;;;;12.23;9.02;;;;;;;;;;5118866;28;20091;-81
2022/05/06 02:48:56;;;;;;;12.50;8.75;;;;;;;;;;5132751;27;20023;-82
2022/05/06 02:51:22;;;;;;;12.15;9.13;;;;;;;;;;5140038;27;20020;-82
2022/05/06 02:53:48;;;;;;;10.32;8.05;;;;;;;;;;5136564;27;20035;-82
2022/05/06 02:56:14;;;;;;;11.63;8.30;;;;;;;;;;5119763;28;20032;-82
2022/05/06 02:58:40;;;;;;;13.70;8.38;;;;;;;;;;5119079;28;20024;-82
2022/05/06 03:01:06;;;;;;;12.20;9.13;;;;;;;;;;5117937;28;20039;-82
2022/05/06 03:03:33;;;;;;;11.45;8.75;;;;;;;;;;5120024;27;20038;-82
2022/05/06 03:06:00;;;;;;;11.85;8.65;;;;;;;;;;5119373;28;20047;-82
2022/05/06 03:08:26;;;;;;;13.23;8.88;;;;;;;;;;5118082;28;20023;-82
2022/05/06 03:10:52;;;;;;;11.70;9.52;;;;;;;;;;5118549;28;20023;-82
2022/05/06 03:13:18;;;;;;;11.98;9.57;;;;;;;;;;5119232;28;20063;-82
2022/05/06 03:15:45;;;;;;;11.65;8.73;;;;;;;;;;5137119;27;20539;-82
2022/05/06 03:18:11;;;;;;;11.82;9.40;;;;;;;;;;5138222;27;20023;-82
2022/05/06 03:20:38;;;;;;;11.85;8.93;;;;;;;;;;5139156;27;20033;-82
2022/05/06 03:23:04;;;;;;;11.95;8.75;;;;;;;;;;5128017;27;20035;-82
2022/05/06 03:25:30;;;;;;;14.10;9.60;;;;;;;;;;5118600;28;20070;-82
2022/05/06 03:27:59;;;;;;;12.55;9.30;;;;;;;;;;5119040;28;20059;-82
2022/05/06 03:30:26;;;;;;;13.02;9.63;;;;;;;;;;5118622;28;20117;-82
2022/05/06 03:32:55;;;;;;;11.57;8.80;;;;;;;;;;5127500;27;20024;-82
2022/05/06 03:35:21;;;;;;;12.02;8.57;;;;;;;;;;5137935;27;20027;-82
2022/05/06 03:37:47;;;;;;;11.77;8.48;;;;;;;;;;5137496;27;20019;-82
2022/05/06 03:40:14;;;;;;;11.23;8.90;;;;;;;;;;5139305;27;20031;-82
2022/05/06 03:42:40;;;;;;;12.00;9.73;;;;;;;;;;5125954;27;20020;-81
2022/05/06 03:45:07;;;;;;;12.55;9.50;;;;;;;;;;5118346;28;20028;-82
2022/05/06 03:47:34;;;;;;;12.23;10.48;;;;;;;;;;5116983;28;20019;-82
2022/05/06 03:52:45;;;;;;;12.73;10.32;;;;;;;;;;5130995;27;20095;-82
2022/05/06 03:55:12;;;;;;;14.35;10.57;;;;;;;;;;5138407;27;20049;-82
2022/05/06 03:57:38;;;;;;;12.82;10.48;;;;;;;;;;5138913;27;20019;-82
2022/05/06 04:00:05;;;;;;;13.70;10.98;;;;;;;;;;5138050;27;20500;-82
2022/05/06 04:02:31;;;;;;;12.93;9.55;;;;;;;;;;5127605;27;20020;-82
2022/05/06 04:04:57;;;;;;;13.50;9.93;;;;;;;;;;5117424;28;20042;-82
2022/05/06 04:07:23;;;;;;;15.13;11.10;;;;;;;;;;5117561;28;20072;-82
2022/05/06 04:09:49;;;;;;;13.70;10.43;;;;;;;;;;5117844;28;20087;-82
2022/05/06 04:12:15;;;;;;;14.57;11.05;;;;;;;;;;5118315;28;20039;-82
2022/05/06 04:14:41;;;;;;;12.05;9.70;;;;;;;;;;5117539;28;20023;-82
2022/05/06 04:17:07;;;;;;;13.20;10.52;;;;;;;;;;5117301;28;20399;-82
2022/05/06 04:19:33;;;;;;;12.93;10.25;;;;;;;;;;5117728;27;20064;-82
2022/05/06 04:24:44;;;;;;;12.88;9.88;;;;;;;;;;5137023;27;20421;-82
2022/05/06 04:27:10;;;;;;;16.23;10.02;;;;;;;;;;5137700;27;20090;-82
2022/05/06 04:29:36;;;;;;;13.00;9.50;;;;;;;;;;5133544;27;20043;-82
2022/05/06 04:32:02;;;;;;;19.05;10.02;;;;;;;;;;5126385;27;20023;-82
2022/05/06 04:34:28;;;;;;;15.43;9.43;;;;;;;;;;5137286;27;20027;-82
2022/05/06 04:36:54;;;;;;;13.45;8.82;;;;;;;;;;5123072;27;20024;-81
2022/05/06 04:39:20;;;;;;;13.85;9.07;;;;;;;;;;5120524;27;20058;-82
2022/05/06 04:41:47;;;;;;;14.57;9.52;;;;;;;;;;5118748;27;20396;-82
2022/05/06 04:44:13;;;;;;;11.02;9.10;;;;;;;;;;5128839;27;20023;-82
2022/05/06 04:46:39;;;;;;;14.20;9.75;;;;;;;;;;5125539;27;20019;-82
2022/05/06 04:49:05;;;;;;;14.43;10.27;;;;;;;;;;5133914;27;20083;-82
2022/05/06 04:51:31;;;;;;;12.40;9.82;;;;;;;;;;5127793;27;20023;-82
2022/05/06 04:53:57;;;;;;;13.18;9.82;;;;;;;;;;5117541;28;20457;-82
2022/05/06 04:56:23;;;;;;;14.35;10.48;;;;;;;;;;5129280;27;20114;-81
2022/05/06 04:58:49;;;;;;;14.73;10.15;;;;;;;;;;5121731;27;20027;-82
2022/05/06 05:01:15;;;;;;;13.07;9.60;;;;;;;;;;5124546;27;20045;-81
2022/05/06 05:03:41;;;;;;;13.05;9.82;;;;;;;;;;5123620;27;20027;-81
2022/05/06 05:06:07;;;;;;;13.73;10.00;;;;;;;;;;5123121;27;20432;-82
2022/05/06 05:08:34;;;;;;;14.18;10.98;;;;;;;;;;5126339;27;20051;-80
2022/05/06 05:11:03;;;;;;;12.52;8.70;;;;;;;;;;5117694;28;20019;-82
2022/05/06 05:13:34;;;;;;;13.13;10.02;;;;;;;;;;5114722;28;20138;-82
2022/05/06 05:16:00;;;;;;;15.95;10.20;;;;;;;;;;5125284;27;20118;-82
2022/05/06 05:18:26;;;;;;;14.23;10.23;;;;;;;;;;5123124;28;20034;-82
2022/05/06 05:20:52;;;;;;;14.05;9.30;;;;;;;;;;5115939;28;20406;-82
2022/05/06 05:23:18;;;;;;;12.38;9.23;;;;;;;;;;5137376;28;20030;-82
2022/05/06 05:25:44;;;;;;;15.80;9.77;;;;;;;;;;5121028;27;20032;-82
2022/05/06 05:28:10;;;;;;;14.45;9.48;;;;;;;;;;5133467;28;20022;-81
2022/05/06 05:30:36;;;;;;;13.68;10.93;;;;;;;;;;5123712;28;20031;-82
2022/05/06 05:33:02;;;;;;;12.82;8.80;;;;;;;;;;5130427;28;20065;-82
2022/05/06 05:35:29;;;;;;;12.40;8.80;;;;;;;;;;5123393;28;20024;-82
2022/05/06 05:37:56;;;;;;;12.45;8.48;;;;;;;;;;5127822;27;20068;-81
2022/05/06 05:40:22;;;;;;;15.77;9.60;;;;;;;;;;5128081;28;20050;-82
2022/05/06 05:42:48;;;;;;;12.60;10.00;;;;;;;;;;5124353;28;20028;-82
2022/05/06 05:50:43;;;;;;;16.50;11.20;;;;;;;;;;5117867;28;20034;-82
2022/05/06 05:53:09;;;;;;;18.38;14.25;;;;;;;;;;5132264;27;20034;-82
2022/05/06 05:55:35;;;;;;;16.35;12.10;;;;;;;;;;5140054;27;20031;-82
2022/05/06 05:58:02;;;;;;;15.75;10.93;;;;;;;;;;5141557;27;20019;-82
2022/05/06 06:00:28;;;;;;;14.38;10.10;;;;;;;;;;5134092;27;20019;-82
2022/05/06 06:02:56;;;;;;;13.15;10.05;;;;;;;;;;5128524;27;20023;-81
2022/05/06 06:05:22;;;;;;;12.88;10.32;;;;;;;;;;5134206;27;20475;-82
2022/05/06 06:07:48;;;;;;;13.05;10.27;;;;;;;;;;5132487;27;20089;-82
2022/05/06 06:10:14;;;;;;;15.38;10.35;;;;;;;;;;5120448;27;20076;-82
2022/05/06 06:12:40;;;;;;;14.15;10.65;;;;;;;;;;5119696;28;20044;-82
2022/05/06 06:15:07;;;;;;;13.50;11.07;;;;;;;;;;5119337;28;20055;-82
2022/05/06 06:17:33;;;;;;;13.38;11.05;;;;;;;;;;5119432;27;20011;-82
2022/05/06 06:20:02;;;;;;;16.13;12.00;;;;;;;;;;5118985;28;20483;-82
2022/05/06 06:22:28;;;;;;;12.70;10.68;;;;;;;;;;5119744;28;20020;-82
2022/05/06 06:24:54;;;;;;;14.60;10.20;;;;;;;;;;5119111;28;20126;-82
2022/05/06 06:27:19;;;;;;;18.73;12.13;;;;;;;;;;5119367;28;20027;-82
2022/05/06 06:29:49;;;;;;;13.57;11.15;;;;;;;;;;5135709;27;20023;-82
2022/05/06 06:32:16;;;;;;;15.27;11.18;;;;;;;;;;5119029;28;20016;-82
2022/05/06 06:34:42;;;;;;;15.73;11.55;;;;;;;;;;5135381;27;20497;-83
2022/05/06 06:37:08;;;;;;;15.70;10.48;;;;;;;;;;5143908;27;20015;-82
2022/05/06 06:39:34;;;;;;;17.55;11.43;;;;;;;;;;5139659;28;20184;-82
2022/05/06 06:42:00;;;;;;;13.73;11.23;;;;;;;;;;5138999;28;20130;-81
2022/05/06 06:44:26;;;;;;;15.90;11.18;;;;;;;;;;5138685;28;20024;-82
2022/05/06 06:46:53;;;;;;;13.95;11.02;;;;;;;;;;5138729;28;20091;-82
2022/05/06 06:49:20;;;;;;;13.77;10.90;;;;;;;;;;5138931;28;20139;-82
2022/05/06 06:51:46;;;;;;;18.55;12.88;;;;;;;;;;5139615;28;20024;-82
2022/05/06 06:54:12;;;;;;;16.77;11.05;;;;;;;;;;5127458;28;20047;-82
2022/05/06 06:56:38;;;;;;;13.70;10.98;;;;;;;;;;5119449;28;20506;-83
2022/05/06 06:59:04;;;;;;;13.18;11.35;;;;;;;;;;5119543;28;20518;-83
2022/05/06 07:01:32;;;;;;;15.50;11.95;;;;;;;;;;5134021;27;20020;-82
2022/05/06 07:04:00;;;;;;;15.65;12.13;;;;;;;;;;5118655;28;20020;-82
2022/05/06 07:11:58;;;;;;;15.95;12.13;;;;;;;;;;5117706;28;20059;-82
2022/05/06 07:14:29;;;;;;;14.48;11.50;;;;;;;;;;5117781;27;20023;-82
2022/05/06 07:16:55;;;;;;;13.75;11.57;;;;;;;;;;5117802;28;20016;-82
2022/05/06 07:19:21;;;;;;;15.35;11.48;;;;;;;;;;5118366;28;20475;-82
2022/05/06 07:21:49;;;;;;;16.38;11.73;;;;;;;;;;5133702;27;20024;-82
2022/05/06 07:24:16;;;;;;;13.80;11.85;;;;;;;;;;5117919;28;20019;-82
2022/05/06 07:26:42;;;;;;;14.90;11.30;;;;;;;;;;5134515;27;20030;-82
2022/05/06 07:29:08;;;;;;;15.93;11.77;;;;;;;;;;5136696;28;20046;-81
2022/05/06 07:31:34;;;;;;;15.70;11.85;;;;;;;;;;5135226;28;20020;-80
2022/05/06 07:34:00;;;;;;;14.90;11.55;;;;;;;;;;5136153;28;20028;-81
2022/05/06 07:36:26;;;;;;;16.40;12.15;;;;;;;;;;5136718;28;20049;-80
2022/05/06 07:38:52;;;;;;;19.35;13.30;;;;;;;;;;5137631;28;20040;-81
2022/05/06 07:41:18;;;;;;;14.68;11.93;;;;;;;;;;5142353;27;20028;-82
2022/05/06 07:43:44;;;;;;;15.20;11.68;;;;;;;;;;5117442;28;20024;-82
2022/05/06 07:46:10;;;;;;;13.82;11.75;;;;;;;;;;5117086;28;20027;-81
2022/05/06 07:48:37;;;;;;;14.82;11.40;;;;;;;;;;5117016;28;20073;-81
2022/05/06 07:51:03;;;;;;;14.45;10.95;;;;;;;;;;5116626;28;20055;-81
2022/05/06 07:53:29;;;;;;;12.73;10.85;;;;;;;;;;5116701;28;20054;-81
2022/05/06 07:55:55;;;;;;;13.43;11.60;;;;;;;;;;5135783;27;20106;-81
2022/05/06 07:58:21;;;;;;;13.73;11.43;;;;;;;;;;5133581;27;20516;-81
2022/05/06 08:00:47;;;;;;;13.85;11.88;;;;;;;;;;5137485;27;20058;-81
2022/05/06 08:05:59;;;;;;;14.25;11.82;;;;;;;;;;5136252;27;20045;-81
2022/05/06 08:08:26;;;;;;;16.10;12.10;;;;;;;;;;5137142;27;20037;-81
2022/05/06 08:10:53;;;;;;;13.60;11.70;;;;;;;;;;5137273;27;20019;-81
2022/05/06 08:13:19;;;;;;;14.70;12.00;;;;;;;;;;5136030;27;20594;-81
2022/05/06 08:15:46;;;;;;;14.38;11.75;;;;;;;;;;5137273;27;20019;-81
2022/05/06 08:18:12;;;;;;;13.82;11.15;;;;;;;;;;5138140;27;20027;-81
2022/05/06 08:20:40;;;;;;;13.77;11.73;;;;;;;;;;5136521;27;20099;-81
2022/05/06 08:23:07;;;;;;;13.32;11.50;;;;;;;;;;5136905;27;20405;-82
2022/05/06 08:25:33;;;;;;;11.93;10.50;;;;;;;;;;5137048;27;20023;-82
2022/05/06 08:27:59;;;;;;;13.60;10.80;;;;;;;;;;5137050;27;20022;-82
2022/05/06 08:30:25;;;;;;;14.55;10.40;;;;;;;;;;5137383;27;20015;-82
2022/05/06 08:32:52;;;;;;;13.40;10.93;;;;;;;;;;5136330;27;20069;-82
2022/05/06 08:35:19;;;;;;;12.70;11.15;;;;;;;;;;5136546;27;20394;-81
2022/05/06 08:37:46;;;;;;;12.68;10.57;;;;;;;;;;5136172;27;20019;-82
2022/05/06 08:40:31;;;;;;;12.80;10.73;;;;;;;;;;5135009;27;20080;-82
2022/05/06 08:42:57;;;;;;;13.40;10.50;;;;;;;;;;5136962;27;20386;-82
2022/05/06 08:50:55;;;;;;;14.80;11.80;;;;;;;;;;5137098;27;20089;-82
2022/05/06 08:53:23;;;;;;;12.60;10.88;;;;;;;;;;5136469;27;20083;-82
2022/05/06 08:55:53;;;;;;;13.30;9.88;;;;;;;;;;5136760;27;20031;-82
2022/05/06 08:58:22;;;;;;;13.10;11.40;;;;;;;;;;5136805;27;20483;-82
2022/05/06 09:00:48;;;;;;;14.10;10.95;;;;;;;;;;5135116;27;20057;-82
2022/05/06 09:03:15;;;;;;;13.98;11.68;;;;;;;;;;5136207;27;20019;-82
2022/05/06 09:05:55;;;;;;;12.52;10.77;;;;;;;;;;5136664;27;20019;-82
2022/05/06 09:08:21;;;;;;;13.40;11.10;;;;;;;;;;5135292;27;20042;-82
2022/05/06 09:11:01;;;;;;;15.20;10.90;;;;;;;;;;5124869;27;20023;-82
2022/05/06 09:13:27;;;;;;;11.90;10.20;;;;;;;;;;5128804;27;20033;-82
2022/05/06 09:19:09;;;;;;;14.25;10.80;;;;;;;;;;5134777;28;20554;-82
2022/05/06 09:21:36;;;;;;;14.48;11.05;;;;;;;;;;5120992;27;20483;-82
2022/05/06 09:24:19;;;;;;;11.93;10.20;;;;;;;;;;5116560;28;20020;-82
2022/05/06 09:26:58;;;;;;;13.55;11.13;;;;;;;;;;5124594;27;20050;-82
2022/05/06 09:29:31;;;;;;;12.50;11.15;;;;;;;;;;5136178;27;20375;-82
2022/05/06 09:32:12;;;;;;;13.55;12.07;;;;;;;;;;5120055;27;20534;-82
2022/05/06 09:34:39;;;;;;;14.80;12.68;;;;;;;;;;5122404;27;20038;-84
2022/05/06 09:37:05;;;;;;;14.43;12.90;;;;;;;;;;5140158;27;20051;-84
2022/05/06 09:39:31;;;;;;;15.15;12.30;;;;;;;;;;5132840;27;20441;-84
2022/05/06 09:42:04;;;;;;;13.35;11.70;;;;;;;;;;5125528;27;20027;-84
2022/05/06 09:44:30;;;;;;;;;;;;;;;;;;5130012;27;20020;-84
2022/05/06 09:47:12;;;;;;;13.18;10.73;;;;;;;;;;5132465;27;19982;-84
2022/05/06 09:49:45;;;;;;;13.45;10.70;;;;;;;;;;5130148;27;20015;-83
2022/05/06 09:52:14;;;;;;;13.05;11.48;;;;;;;;;;5138631;27;20023;-84
2022/05/06 09:54:41;;;;;;;14.18;11.60;;;;;;;;;;5128820;27;20023;-84
2022/05/06 09:57:08;;;;;;;12.65;11.02;;;;;;;;;;5141715;27;20020;-83
2022/05/06 09:59:37;;;;;;;14.10;11.23;;;;;;;;;;5139535;27;20111;-84
2022/05/06 10:02:04;;;;;;;14.73;10.45;;;;;;;;;;5135985;27;20031;-84
2022/05/06 10:04:30;;;;;;;12.30;11.00;;;;;;;;;;5141114;27;20111;-84
2022/05/06 10:07:00;;;;;;;12.85;11.55;;;;;;;;;;5139671;27;20061;-84
2022/05/06 10:09:27;;;;;;;11.50;10.23;;;;;;;;;;5152833;27;20110;-83
2022/05/06 10:11:54;;;;;;;13.52;10.45;;;;;;;;;;5128246;27;20513;-84
2022/05/06 10:14:20;;;;;;;12.07;10.50;;;;;;;;;;5140623;27;20026;-84
2022/05/06 10:16:48;;;;;;;14.30;10.55;;;;;;;;;;5141091;27;20027;-83
2022/05/06 10:19:27;;;;;;;12.02;10.73;;;;;;;;;;5126811;27;20023;-84
2022/05/06 10:21:55;;;;;;;12.35;9.90;;;;;;;;;;5141935;27;20027;-84
2022/05/06 10:24:21;;;;;;;11.70;10.05;;;;;;;;;;5141820;27;20023;-84
2022/05/06 10:26:47;;;;;;;11.52;10.32;;;;;;;;;;5139579;27;20398;-85
2022/05/06 10:34:58;;;;;;;11.70;9.82;;;;;;;;;;5127952;27;20059;-84
2022/05/06 10:37:28;;;;;;;12.43;11.13;;;;;;;;;;5137621;27;20294;-84
2022/05/06 10:39:54;;;;;;;12.27;10.18;;;;;;;;;;5138112;27;20157;-84
2022/05/06 10:42:31;;;;;;;11.95;10.65;;;;;;;;;;5138703;27;20023;-83
2022/05/06 10:44:57;;;;;;;12.13;10.82;;;;;;;;;;5138094;27;20016;-85
2022/05/06 10:47:39;;;;;;;14.95;10.95;;;;;;;;;;5130015;27;20095;-84
2022/05/06 10:50:16;;;;;;;12.85;11.27;;;;;;;;;;5125645;27;20027;-84
2022/05/06 10:52:42;;;;;;;12.85;10.98;;;;;;;;;;5119137;27;20023;-84
2022/05/06 10:55:12;;;;;;;11.73;10.15;;;;;;;;;;5117055;27;20023;-84
2022/05/06 10:57:48;;;;;;;12.32;9.88;;;;;;;;;;5120859;27;20027;-84
2022/05/06 11:00:14;;;;;;;12.60;10.68;;;;;;;;;;5121801;27;20073;-84
2022/05/06 11:02:40;;;;;;;11.52;10.18;;;;;;;;;;5121143;28;20084;-84
2022/05/06 11:05:06;;;;;;;16.05;12.30;;;;;;;;;;5120175;28;20024;-84
2022/05/06 11:07:34;;;;;;;14.10;11.55;;;;;;;;;;5116248;28;20024;-84
2022/05/06 11:10:06;;;;;;;14.63;11.05;;;;;;;;;;5118613;28;20031;-84
2022/05/06 11:12:35;;;;;;;12.75;11.07;;;;;;;;;;5114442;28;20039;-84
2022/05/06 11:15:03;;;;;;;13.20;11.38;;;;;;;;;;5116850;28;20036;-84
2022/05/06 11:17:31;;;;;;;12.65;10.82;;;;;;;;;;5116926;27;20016;-85
2022/05/06 11:19:57;;;;;;;12.38;11.07;;;;;;;;;;5115492;28;20028;-84
2022/05/06 11:22:24;;;;;;;12.15;10.77;;;;;;;;;;5115713;28;20118;-84
2022/05/06 11:24:50;;;;;;;13.15;11.05;;;;;;;;;;5116922;28;20019;-84
2022/05/06 11:27:17;;;;;;;12.23;10.85;;;;;;;;;;5115776;28;20522;-84
2022/05/06 11:29:55;;;;;;;12.85;10.75;;;;;;;;;;5116171;28;20287;-84
2022/05/06 11:32:22;;;;;;;16.13;11.73;;;;;;;;;;5118363;28;20046;-84
2022/05/06 11:34:51;;;;;;;14.43;11.57;;;;;;;;;;5118957;28;20102;-84
2022/05/06 11:37:24;;;;;;;12.95;11.55;;;;;;;;;;5118599;28;20066;-84
2022/05/06 11:39:51;;;;;;;13.73;11.63;;;;;;;;;;5121092;28;20068;-83
2022/05/06 11:42:23;;;;;;;14.02;12.07;;;;;;;;;;5117834;28;20023;-84
2022/05/06 11:47:44;;;;;;;13.13;11.10;;;;;;;;;;5121603;27;20065;-84
2022/05/06 11:50:10;;;;;;;13.43;11.63;;;;;;;;;;5134855;27;20035;-84
2022/05/06 11:52:40;;;;;;;13.75;11.63;;;;;;;;;;5134988;27;20027;-84
2022/05/06 11:55:06;;;;;;;13.48;10.95;;;;;;;;;;5136737;27;20027;-84
2022/05/06 11:57:35;;;;;;;13.77;12.25;;;;;;;;;;5136685;27;20023;-84
2022/05/06 12:00:05;;;;;;;13.45;11.57;;;;;;;;;;5136321;27;20646;-85
2022/05/06 12:02:31;;;;;;;13.20;11.18;;;;;;;;;;5138218;27;20091;-83
2022/05/06 12:04:57;;;;;;;13.77;11.63;;;;;;;;;;5134320;27;20104;-83
2022/05/06 12:07:42;;;;;;;15.45;12.30;;;;;;;;;;5138788;27;20037;-85
2022/05/06 12:10:10;;;;;;;13.23;11.68;;;;;;;;;;5137331;27;20019;-85
2022/05/06 12:12:56;;;;;;;14.23;11.95;;;;;;;;;;5139498;27;20062;-84
2022/05/06 12:15:39;;;;;;;14.68;12.43;;;;;;;;;;5136345;27;20539;-84
2022/05/06 12:18:05;;;;;;;13.98;12.38;;;;;;;;;;5135810;27;20204;-84
2022/05/06 12:20:32;;;;;;;14.38;12.68;;;;;;;;;;5137029;27;20022;-84
2022/05/06 12:22:58;;;;;;;15.73;12.75;;;;;;;;;;5137215;27;20443;-84
2022/05/06 12:25:25;;;;;;;14.10;12.25;;;;;;;;;;5138109;27;20098;-84
2022/05/06 12:28:07;;;;;;;15.43;12.18;;;;;;;;;;5137351;27;20045;-84
2022/05/06 12:30:34;;;;;;;14.90;13.30;;;;;;;;;;5137672;27;20011;-83
2022/05/06 12:33:06;;;;;;;14.73;13.23;;;;;;;;;;5138840;27;20043;-83
2022/05/06 12:35:32;;;;;;;13.90;12.50;;;;;;;;;;5140061;27;20071;-83
2022/05/06 12:37:59;;;;;;;14.07;12.30;;;;;;;;;;5142518;27;20034;-83
2022/05/06 12:40:29;;;;;;;14.27;12.30;;;;;;;;;;5140837;27;20129;-83
2022/05/06 12:43:04;;;;;;;16.42;13.40;;;;;;;;;;5139023;27;20031;-83
2022/05/06 12:45:31;;;;;;;15.27;12.85;;;;;;;;;;5138874;27;20019;-83
2022/05/06 12:50:41;;;;;;;14.43;12.93;;;;;;;;;;5137590;27;20034;-84
2022/05/06 12:53:07;;;;;;;14.52;12.98;;;;;;;;;;5137739;27;20427;-83
2022/05/06 12:55:33;;;;;;;14.35;12.48;;;;;;;;;;5139129;27;20084;-84
2022/05/06 12:57:59;;;;;;;13.90;12.40;;;;;;;;;;5137665;27;20027;-84
2022/05/06 13:00:26;;;;;;;16.73;13.57;;;;;;;;;;5136859;27;20027;-84
2022/05/06 13:02:55;;;;;;;14.48;12.98;;;;;;;;;;5137972;27;20034;-84
2022/05/06 13:05:22;;;;;;;14.60;12.23;;;;;;;;;;5137419;27;20024;-83
2022/05/06 13:07:48;;;;;;;13.93;12.52;;;;;;;;;;5138663;27;20015;-83
2022/05/06 13:10:14;;;;;;;13.63;12.07;;;;;;;;;;5136933;27;20478;-83
2022/05/06 13:12:40;;;;;;;14.52;13.02;;;;;;;;;;5135714;27;20051;-83
2022/05/06 13:18:27;;;;;;;14.15;12.13;;;;;;;;;;5044823;28;20041;-83
2022/05/06 13:20:53;;;;;;;13.30;11.88;;;;;;;;;;5034870;28;20163;-83
2022/05/06 13:23:19;;;;;;;14.18;12.65;;;;;;;;;;5034250;28;20033;-84
2022/05/06 13:25:46;;;;;;;15.95;13.25;;;;;;;;;;5034052;28;20044;-83
2022/05/06 13:28:12;;;;;;;15.35;13.75;;;;;;;;;;5034643;28;20467;-83
2022/05/06 13:30:38;;;;;;;16.00;12.63;;;;;;;;;;5038903;28;20021;-82
2022/05/06 13:33:05;;;;;;;15.20;13.50;;;;;;;;;;5048616;28;20052;-83
2022/05/06 13:35:31;;;;;;;14.45;12.88;;;;;;;;;;5035126;28;20013;-82
2022/05/06 13:37:57;;;;;;;16.17;13.52;;;;;;;;;;5044880;28;20102;-83
2022/05/06 13:40:23;;;;;;;14.98;12.88;;;;;;;;;;5051436;28;20040;-82
2022/05/06 13:42:49;;;;;;;15.57;12.88;;;;;;;;;;5037403;28;20428;-82
2022/05/06 13:45:15;;;;;;;15.65;13.45;;;;;;;;;;5053556;28;20530;-82
2022/05/06 13:47:41;;;;;;;14.18;12.68;;;;;;;;;;5050986;28;20597;-83
2022/05/06 13:50:08;;;;;;;13.77;12.38;;;;;;;;;;5037206;28;20029;-83
2022/05/06 13:52:34;;;;;;;14.23;12.73;;;;;;;;;;5092711;28;20034;-85
2022/05/06 13:55:04;;;;;;;15.20;12.85;;;;;;;;;;5118433;28;20080;-83
2022/05/06 14:00:26;;;;;;;16.02;13.13;;;;;;;;;;5095171;28;20031;-83
2022/05/06 14:02:52;;;;;;;16.60;14.10;;;;;;;;;;5119144;28;20096;-82
2022/05/06 14:05:18;;;;;;;15.35;13.50;;;;;;;;;;5128795;28;20055;-82
2022/05/06 14:07:44;;;;;;;14.82;13.18;;;;;;;;;;5127098;28;20106;-82
2022/05/06 14:10:11;;;;;;;15.32;13.30;;;;;;;;;;5135733;27;20028;-82
2022/05/06 14:12:37;;;;;;;15.15;12.52;;;;;;;;;;5136365;27;20043;-81
2022/05/06 14:15:04;;;;;;;15.25;12.43;;;;;;;;;;5138355;27;20653;-82
2022/05/06 14:17:31;;;;;;;15.32;13.40;;;;;;;;;;5139700;27;20080;-82
2022/05/06 14:19:57;;;;;;;15.02;13.43;;;;;;;;;;5138175;27;20038;-83
2022/05/06 14:22:23;;;;;;;16.85;12.82;;;;;;;;;;5138959;27;20127;-82
2022/05/06 14:24:50;;;;;;;16.33;12.95;;;;;;;;;;5125693;27;20027;-82
2022/05/06 14:27:17;;;;;;;14.10;12.60;;;;;;;;;;5143148;27;20027;-82
2022/05/06 14:29:43;;;;;;;14.27;12.45;;;;;;;;;;5140546;27;20023;-82
2022/05/06 14:32:09;;;;;;;15.55;13.43;;;;;;;;;;5131182;27;20024;-82
2022/05/06 14:34:36;;;;;;;14.88;12.00;;;;;;;;;;5122855;27;20399;-82
2022/05/06 14:37:02;;;;;;;15.20;12.77;;;;;;;;;;5141006;27;20037;-82
2022/05/06 14:39:28;;;;;;;14.30;12.80;;;;;;;;;;5134138;27;20030;-82
2022/05/06 14:41:54;;;;;;;15.27;12.77;;;;;;;;;;5120749;27;20041;-83
2022/05/06 14:44:20;;;;;;;14.50;12.63;;;;;;;;;;5120308;28;20020;-82
2022/05/06 14:46:46;;;;;;;14.93;13.30;;;;;;;;;;5138071;27;20023;-83
2022/05/06 14:49:12;;;;;;;13.80;12.40;;;;;;;;;;5138027;27;20019;-82
2022/05/06 14:51:38;;;;;;;12.68;11.07;;;;;;;;;;5132262;27;20023;-82
2022/05/06 14:54:05;;;;;;;14.73;12.65;;;;;;;;;;5139143;27;20025;-82
2022/05/06 14:56:31;;;;;;;13.75;11.50;;;;;;;;;;5138405;27;20030;-83
2022/05/06 14:58:58;;;;;;;14.10;11.82;;;;;;;;;;5118921;27;20031;-83
2022/05/06 15:01:24;;;;;;;13.95;12.55;;;;;;;;;;5137882;27;20110;-83
2022/05/06 15:03:50;;;;;;;13.40;11.98;;;;;;;;;;5140165;27;20494;-83
2022/05/06 15:06:16;;;;;;;14.85;13.25;;;;;;;;;;5141135;27;20030;-83
2022/05/06 15:08:42;;;;;;;16.13;12.88;;;;;;;;;;5139212;27;20038;-83
2022/05/06 15:11:09;;;;;;;14.25;12.50;;;;;;;;;;5118822;27;20422;-83
2022/05/06 15:13:35;;;;;;;13.85;12.45;;;;;;;;;;5119214;28;20387;-83
2022/05/06 15:16:01;;;;;;;14.57;12.43;;;;;;;;;;5117646;28;20027;-83